createdAt,value
2022-08-29T00:00:38.613Z,8.60
2022-08-29T00:01:38.593Z,4.10
2022-08-29T00:02:38.632Z,7.90
2022-08-29T00:03:38.575Z,14.50
2022-08-29T00:04:38.587Z,10.50
2022-08-29T00:05:38.556Z,11.70
2022-08-29T00:06:38.594Z,7.10
2022-08-29T00:07:38.548Z,6.60
2022-08-29T00:08:38.510Z,7.00
2022-08-29T00:09:38.505Z,14.10
2022-08-29T00:10:38.537Z,5.60
2022-08-29T00:11:40.582Z,11.10
2022-08-29T00:12:39.507Z,7.80
2022-08-29T00:13:38.478Z,3.60
2022-08-29T00:14:38.446Z,4.00
2022-08-29T00:15:44.650Z,7.00
2022-08-29T00:16:39.474Z,11.40
2022-08-29T00:17:38.425Z,8.40
2022-08-29T00:18:38.437Z,6.20
2022-08-29T00:19:38.394Z,12.50
2022-08-29T00:20:38.388Z,5.10
2022-08-29T00:21:38.353Z,9.10
2022-08-29T00:22:38.415Z,4.80
2022-08-29T00:23:38.336Z,9.20
2022-08-29T00:24:38.313Z,4.60
2022-08-29T00:25:38.310Z,18.00
2022-08-29T00:26:38.371Z,9.30
2022-08-29T00:27:38.311Z,5.20
2022-08-29T00:28:38.339Z,9.40
2022-08-29T00:29:38.278Z,5.60
2022-08-29T00:30:38.254Z,5.90
2022-08-29T00:31:38.282Z,9.30
2022-08-29T00:32:38.269Z,4.90
2022-08-29T00:33:39.313Z,8.30
2022-08-29T00:34:38.320Z,3.70
2022-08-29T00:35:38.251Z,4.00
2022-08-29T00:36:38.181Z,11.00
2022-08-29T00:37:38.195Z,3.70
2022-08-29T00:38:38.221Z,5.40
2022-08-29T00:39:38.140Z,7.00
2022-08-29T00:40:38.223Z,2.90
2022-08-29T00:41:38.236Z,7.80
2022-08-29T00:42:38.129Z,9.40
2022-08-29T00:43:38.144Z,3.70
2022-08-29T00:44:38.108Z,6.40
2022-08-29T00:45:38.143Z,6.30
2022-08-29T00:46:38.072Z,11.90
2022-08-29T00:47:38.119Z,11.60
2022-08-29T00:48:38.067Z,4.50
2022-08-29T00:49:38.069Z,8.50
2022-08-29T00:50:38.034Z,4.60
2022-08-29T00:51:38.032Z,6.80
2022-08-29T00:52:37.994Z,4.50
2022-08-29T00:53:37.995Z,14.40
2022-08-29T00:54:37.999Z,11.00
2022-08-29T00:55:37.967Z,11.60
2022-08-29T00:56:37.963Z,9.20
2022-08-29T00:57:37.947Z,9.90
2022-08-29T00:58:37.925Z,4.70
2022-08-29T00:59:37.968Z,8.00
2022-08-29T01:00:37.947Z,4.00
2022-08-29T01:01:37.890Z,4.30
2022-08-29T01:02:40.493Z,10.60
2022-08-29T01:03:41.018Z,7.90
2022-08-29T01:04:37.860Z,18.60
2022-08-29T01:05:37.875Z,7.50
2022-08-29T01:06:37.876Z,5.50
2022-08-29T01:07:37.978Z,15.90
2022-08-29T01:08:37.835Z,12.70
2022-08-29T01:09:37.815Z,17.30
2022-08-29T01:10:37.798Z,3.30
2022-08-29T01:11:37.851Z,12.10
2022-08-29T01:12:37.769Z,2.60
2022-08-29T01:13:37.774Z,13.90
2022-08-29T01:14:38.722Z,14.20
2022-08-29T01:15:37.767Z,22.30
2022-08-29T01:16:37.817Z,4.30
2022-08-29T01:17:37.711Z,2.90
2022-08-29T01:18:37.749Z,9.60
2022-08-29T01:19:37.695Z,6.40
2022-08-29T01:20:37.682Z,10.30
2022-08-29T01:21:37.717Z,14.20
2022-08-29T01:22:37.671Z,7.80
2022-08-29T01:23:37.642Z,4.00
2022-08-29T01:24:37.650Z,2.90
2022-08-29T01:25:37.634Z,5.30
2022-08-29T01:26:37.639Z,5.80
2022-08-29T01:27:37.601Z,6.40
2022-08-29T01:28:37.590Z,9.10
2022-08-29T01:29:37.594Z,16.90
2022-08-29T01:30:37.566Z,12.00
2022-08-29T01:31:55.948Z,11.60
2022-08-29T01:32:38.616Z,10.80
2022-08-29T01:33:37.553Z,6.90
2022-08-29T01:34:37.523Z,7.60
2022-08-29T01:35:37.507Z,5.30
2022-08-29T01:36:37.490Z,6.70
2022-08-29T01:37:37.513Z,9.40
2022-08-29T01:38:37.476Z,4.90
2022-08-29T01:39:37.459Z,4.60
2022-08-29T01:40:37.533Z,6.50
2022-08-29T01:41:37.450Z,7.80
2022-08-29T01:42:37.538Z,4.80
2022-08-29T01:43:37.418Z,6.20
2022-08-29T01:44:37.409Z,10.00
2022-08-29T01:45:37.506Z,8.50
2022-08-29T01:46:37.432Z,9.70
2022-08-29T01:47:37.429Z,5.00
2022-08-29T01:48:37.373Z,11.00
2022-08-29T01:49:38.753Z,6.30
2022-08-29T01:50:37.354Z,5.40
2022-08-29T01:51:37.327Z,4.00
2022-08-29T01:52:37.338Z,5.20
2022-08-29T01:53:37.306Z,5.70
2022-08-29T01:54:37.321Z,8.80
2022-08-29T01:55:37.290Z,11.30
2022-08-29T01:56:37.291Z,8.40
2022-08-29T01:57:37.290Z,14.30
2022-08-29T01:58:37.272Z,8.40
2022-08-29T01:59:37.275Z,6.30
2022-08-29T02:00:37.297Z,8.20
2022-08-29T02:01:37.266Z,16.50
2022-08-29T02:02:37.330Z,3.30
2022-08-29T02:03:37.209Z,4.20
2022-08-29T02:04:37.179Z,6.50
2022-08-29T02:05:37.197Z,9.00
2022-08-29T02:06:37.163Z,4.50
2022-08-29T02:07:37.162Z,10.10
2022-08-29T02:08:37.163Z,8.20
2022-08-29T02:09:37.142Z,6.70
2022-08-29T02:10:37.115Z,3.50
2022-08-29T02:11:37.103Z,6.70
2022-08-29T02:12:37.097Z,4.30
2022-08-29T02:13:37.106Z,4.60
2022-08-29T02:14:37.069Z,6.00
2022-08-29T02:15:37.078Z,4.70
2022-08-29T02:16:37.119Z,4.50
2022-08-29T02:17:37.029Z,4.60
2022-08-29T02:18:37.028Z,7.10
2022-08-29T02:19:37.007Z,6.30
2022-08-29T02:20:37.000Z,8.40
2022-08-29T02:21:37.037Z,4.80
2022-08-29T02:22:36.985Z,10.60
2022-08-29T02:23:36.972Z,13.00
2022-08-29T02:24:37.069Z,10.00
2022-08-29T02:25:37.001Z,7.80
2022-08-29T02:26:36.935Z,3.40
2022-08-29T02:27:37.012Z,8.50
2022-08-29T02:28:36.936Z,5.90
2022-08-29T02:29:37.641Z,5.10
2022-08-29T02:30:36.891Z,9.30
2022-08-29T02:31:36.904Z,9.40
2022-08-29T02:32:36.870Z,8.20
2022-08-29T02:33:36.925Z,7.50
2022-08-29T02:34:36.846Z,9.90
2022-08-29T02:35:39.862Z,6.50
2022-08-29T02:36:37.845Z,6.50
2022-08-29T02:37:36.807Z,12.80
2022-08-29T02:38:36.809Z,5.80
2022-08-29T02:39:36.802Z,11.80
2022-08-29T02:40:36.847Z,9.60
2022-08-29T02:41:36.766Z,13.50
2022-08-29T02:42:36.775Z,8.80
2022-08-29T02:43:36.761Z,12.30
2022-08-29T02:44:36.758Z,7.40
2022-08-29T02:45:36.744Z,5.80
2022-08-29T02:46:36.794Z,5.50
2022-08-29T02:47:36.718Z,3.60
2022-08-29T02:48:36.710Z,4.20
2022-08-29T02:49:36.681Z,5.20
2022-08-29T02:50:36.678Z,4.50
2022-08-29T02:51:36.651Z,3.20
2022-08-29T02:52:37.381Z,5.10
2022-08-29T02:53:36.648Z,7.10
2022-08-29T02:54:36.624Z,8.90
2022-08-29T02:55:36.653Z,5.30
2022-08-29T02:56:36.600Z,6.10
2022-08-29T02:57:36.576Z,5.00
2022-08-29T02:58:36.594Z,7.60
2022-08-29T02:59:36.554Z,4.70
2022-08-29T03:00:36.576Z,5.20
2022-08-29T03:01:36.599Z,3.60
2022-08-29T03:02:36.627Z,4.20
2022-08-29T03:03:36.524Z,7.20
2022-08-29T03:04:36.530Z,4.50
2022-08-29T03:05:36.492Z,6.60
2022-08-29T03:06:36.546Z,7.50
2022-08-29T03:07:36.485Z,4.30
2022-08-29T03:08:36.464Z,7.30
2022-08-29T03:09:36.457Z,5.90
2022-08-29T03:10:36.475Z,4.20
2022-08-29T03:11:36.454Z,3.70
2022-08-29T03:12:36.422Z,6.30
2022-08-29T03:13:36.420Z,4.60
2022-08-29T03:14:36.405Z,5.40
2022-08-29T03:15:36.411Z,6.00
2022-08-29T03:16:36.434Z,7.20
2022-08-29T03:17:36.376Z,5.00
2022-08-29T03:18:36.351Z,8.40
2022-08-29T03:19:37.313Z,5.60
2022-08-29T03:20:36.331Z,8.60
2022-08-29T03:21:36.333Z,7.60
2022-08-29T03:22:36.305Z,4.30
2022-08-29T03:23:36.294Z,6.30
2022-08-29T03:24:36.364Z,5.30
2022-08-29T03:25:36.281Z,5.00
2022-08-29T03:26:36.260Z,7.00
2022-08-29T03:27:36.267Z,5.40
2022-08-29T03:28:36.258Z,5.20
2022-08-29T03:29:36.237Z,11.00
2022-08-29T03:30:36.235Z,7.30
2022-08-29T03:31:36.286Z,9.40
2022-08-29T03:32:36.198Z,7.20
2022-08-29T03:33:36.198Z,4.40
2022-08-29T03:34:36.182Z,5.00
2022-08-29T03:35:36.153Z,10.00
2022-08-29T03:36:36.142Z,5.50
2022-08-29T03:37:36.154Z,5.20
2022-08-29T03:38:36.147Z,4.40
2022-08-29T03:39:36.145Z,10.00
2022-08-29T03:40:36.180Z,5.40
2022-08-29T03:41:36.095Z,7.40
2022-08-29T03:42:36.094Z,3.70
2022-08-29T03:43:36.095Z,6.50
2022-08-29T03:44:36.065Z,5.80
2022-08-29T03:45:36.076Z,5.50
2022-08-29T03:46:36.080Z,10.90
2022-08-29T03:47:36.024Z,7.40
2022-08-29T03:48:36.041Z,7.60
2022-08-29T03:49:36.022Z,8.90
2022-08-29T03:50:36.019Z,8.30
2022-08-29T03:51:35.976Z,8.40
2022-08-29T03:52:35.976Z,5.30
2022-08-29T03:53:35.997Z,14.60
2022-08-29T03:54:35.960Z,6.00
2022-08-29T03:55:35.963Z,12.00
2022-08-29T03:56:35.930Z,9.80
2022-08-29T03:57:35.921Z,4.40
2022-08-29T03:58:35.895Z,4.80
2022-08-29T03:59:35.908Z,5.30
2022-08-29T04:00:35.873Z,3.90
2022-08-29T04:01:35.902Z,6.10
2022-08-29T04:02:35.938Z,10.60
2022-08-29T04:03:35.849Z,5.60
2022-08-29T04:04:35.842Z,3.60
2022-08-29T04:05:35.849Z,4.80
2022-08-29T04:06:35.851Z,7.90
2022-08-29T04:07:35.845Z,9.20
2022-08-29T04:08:35.803Z,11.50
2022-08-29T04:09:35.817Z,11.30
2022-08-29T04:10:35.797Z,9.00
2022-08-29T04:11:35.771Z,4.50
2022-08-29T04:12:35.763Z,7.40
2022-08-29T04:13:35.772Z,17.10
2022-08-29T04:14:35.757Z,6.50
2022-08-29T04:15:35.735Z,4.30
2022-08-29T04:16:35.822Z,11.90
2022-08-29T04:17:35.789Z,14.00
2022-08-29T04:18:35.700Z,20.30
2022-08-29T04:19:35.667Z,15.40
2022-08-29T04:20:35.654Z,4.00
2022-08-29T04:21:35.655Z,18.50
2022-08-29T04:22:35.637Z,3.80
2022-08-29T04:23:35.618Z,7.60
2022-08-29T04:24:35.628Z,8.80
2022-08-29T04:25:37.120Z,6.90
2022-08-29T04:26:37.277Z,6.40
2022-08-29T04:27:35.578Z,7.10
2022-08-29T04:28:35.574Z,14.50
2022-08-29T04:29:35.557Z,21.30
2022-08-29T04:30:35.559Z,16.40
2022-08-29T04:31:35.652Z,15.40
2022-08-29T04:32:35.517Z,7.00
2022-08-29T04:33:35.511Z,19.10
2022-08-29T04:34:35.542Z,15.20
2022-08-29T04:35:35.476Z,7.40
2022-08-29T04:36:35.534Z,8.70
2022-08-29T04:37:35.496Z,14.90
2022-08-29T04:38:35.456Z,14.20
2022-08-29T04:39:35.468Z,9.50
2022-08-29T04:40:35.454Z,11.10
2022-08-29T04:41:35.453Z,7.20
2022-08-29T04:42:35.470Z,32.20
2022-08-29T04:43:35.392Z,15.00
2022-08-29T04:44:35.379Z,11.30
2022-08-29T04:45:35.399Z,15.10
2022-08-29T04:46:35.408Z,31.30
2022-08-29T04:47:44.162Z,21.70
2022-08-29T04:48:35.427Z,24.80
2022-08-29T04:49:35.315Z,31.80
2022-08-29T04:50:35.379Z,26.20
2022-08-29T04:51:35.379Z,24.40
2022-08-29T04:52:35.339Z,18.40
2022-08-29T04:53:35.312Z,8.80
2022-08-29T04:54:35.261Z,5.90
2022-08-29T04:55:35.285Z,8.60
2022-08-29T04:56:35.245Z,13.50
2022-08-29T04:57:35.243Z,4.50
2022-08-29T04:58:35.250Z,3.20
2022-08-29T04:59:35.201Z,4.70
2022-08-29T05:00:35.199Z,5.90
2022-08-29T05:01:35.258Z,9.90
2022-08-29T05:02:35.300Z,9.50
2022-08-29T05:03:35.170Z,10.60
2022-08-29T05:04:35.150Z,7.80
2022-08-29T05:05:35.156Z,9.30
2022-08-29T05:06:35.127Z,13.30
2022-08-29T05:07:35.136Z,14.40
2022-08-29T05:08:35.100Z,19.10
2022-08-29T05:09:35.129Z,5.10
2022-08-29T05:10:35.106Z,10.70
2022-08-29T05:11:35.066Z,19.70
2022-08-29T05:12:35.062Z,2.90
2022-08-29T05:13:35.048Z,10.70
2022-08-29T05:14:35.042Z,4.30
2022-08-29T05:15:35.110Z,5.60
2022-08-29T05:16:35.017Z,14.40
2022-08-29T05:17:35.003Z,9.40
2022-08-29T05:18:35.034Z,4.90
2022-08-29T05:19:35.503Z,4.40
2022-08-29T05:22:04.424Z,17.50
2022-08-29T05:23:04.410Z,10.00
2022-08-29T05:24:05.040Z,18.70
2022-08-29T05:25:04.039Z,3.80
2022-08-29T05:26:05.262Z,30.80
2022-08-29T05:27:03.806Z,41.40
2022-08-29T05:28:04.102Z,40.60
2022-08-29T05:29:03.779Z,55.70
2022-08-29T05:30:04.243Z,24.30
2022-08-29T05:31:03.842Z,11.40
2022-08-29T05:32:03.992Z,36.90
2022-08-29T05:33:03.774Z,34.70
2022-08-29T05:34:32.789Z,31.00
2022-08-29T05:36:13.633Z,29.40
2022-08-29T05:37:13.590Z,24.80
2022-08-29T05:38:13.606Z,21.60
2022-08-29T05:39:13.879Z,7.40
2022-08-29T05:40:13.493Z,8.90
2022-08-29T05:41:13.438Z,9.90
2022-08-29T05:42:13.401Z,6.60
2022-08-29T05:43:13.375Z,22.90
2022-08-29T05:44:13.385Z,6.70
2022-08-29T05:45:13.444Z,35.00
2022-08-29T05:46:13.395Z,37.10
2022-08-29T05:47:14.354Z,24.40
2022-08-29T05:48:13.465Z,30.30
2022-08-29T05:49:13.370Z,15.70
2022-08-29T05:50:13.309Z,15.10
2022-08-29T05:51:13.295Z,6.50
2022-08-29T05:52:13.286Z,5.60
2022-08-29T05:53:13.272Z,5.30
2022-08-29T05:54:13.295Z,4.80
2022-08-29T05:55:13.277Z,6.30
2022-08-29T05:56:13.236Z,6.70
2022-08-29T05:57:18.163Z,4.20
2022-08-29T05:58:14.414Z,6.50
2022-08-29T05:59:13.215Z,4.20
2022-08-29T06:00:13.217Z,5.10
2022-08-29T06:01:13.182Z,6.10
2022-08-29T06:02:13.304Z,5.10
2022-08-29T06:03:13.284Z,5.20
2022-08-29T06:04:13.158Z,19.10
2022-08-29T06:05:13.175Z,5.30
2022-08-29T06:06:13.116Z,6.80
2022-08-29T06:07:13.106Z,7.50
2022-08-29T06:08:13.123Z,12.40
2022-08-29T06:09:13.123Z,7.00
2022-08-29T06:10:13.113Z,8.00
2022-08-29T06:11:13.086Z,9.80
2022-08-29T06:12:13.052Z,8.40
2022-08-29T06:13:13.060Z,7.70
2022-08-29T06:14:13.034Z,7.70
2022-08-29T06:15:13.026Z,11.90
2022-08-29T06:16:13.094Z,7.40
2022-08-29T06:17:13.045Z,10.20
2022-08-29T06:18:13.004Z,6.80
2022-08-29T06:19:12.967Z,9.00
2022-08-29T06:20:12.965Z,4.80
2022-08-29T06:21:12.946Z,4.60
2022-08-29T06:22:12.953Z,5.60
2022-08-29T06:23:12.998Z,10.50
2022-08-29T06:24:12.914Z,9.10
2022-08-29T06:25:37.352Z,7.80
2022-08-29T06:26:13.922Z,3.80
2022-08-29T06:27:13.019Z,12.60
2022-08-29T06:28:13.132Z,10.80
2022-08-29T06:29:13.879Z,6.30
2022-08-29T06:30:12.843Z,5.40
2022-08-29T06:31:12.920Z,4.90
2022-08-29T06:32:12.822Z,9.00
2022-08-29T06:33:12.808Z,5.00
2022-08-29T06:34:12.805Z,7.50
2022-08-29T06:35:12.817Z,6.10
2022-08-29T06:36:12.775Z,7.20
2022-08-29T06:37:12.787Z,6.20
2022-08-29T06:38:14.166Z,7.00
2022-08-29T06:39:12.744Z,4.70
2022-08-29T06:40:12.786Z,4.70
2022-08-29T06:41:12.739Z,8.50
2022-08-29T06:42:12.742Z,6.70
2022-08-29T06:43:12.706Z,7.00
2022-08-29T06:44:12.685Z,7.90
2022-08-29T06:45:12.676Z,4.70
2022-08-29T06:46:12.736Z,22.90
2022-08-29T06:47:12.676Z,6.90
2022-08-29T06:48:13.961Z,3.90
2022-08-29T06:49:12.656Z,11.60
2022-08-29T06:50:12.622Z,7.30
2022-08-29T06:51:12.667Z,8.10
2022-08-29T06:52:12.601Z,12.40
2022-08-29T06:53:27.581Z,6.20
2022-08-29T06:54:13.583Z,6.80
2022-08-29T06:55:12.599Z,8.00
2022-08-29T06:56:12.583Z,5.40
2022-08-29T06:57:12.592Z,9.90
2022-08-29T06:58:12.549Z,5.90
2022-08-29T06:59:12.551Z,7.00
2022-08-29T07:00:21.755Z,5.60
2022-08-29T07:01:13.537Z,9.10
2022-08-29T07:02:12.584Z,4.20
2022-08-29T07:03:12.640Z,6.30
2022-08-29T07:04:14.269Z,9.90
2022-08-29T07:05:12.477Z,8.50
2022-08-29T07:06:12.462Z,5.20
2022-08-29T07:07:12.464Z,5.30
2022-08-29T07:08:12.473Z,7.20
2022-08-29T07:09:12.430Z,5.40
2022-08-29T07:10:12.439Z,6.80
2022-08-29T07:11:12.427Z,9.00
2022-08-29T07:12:12.438Z,25.20
2022-08-29T07:13:12.413Z,8.80
2022-08-29T07:14:12.381Z,5.00
2022-08-29T07:15:12.367Z,10.60
2022-08-29T07:16:12.510Z,7.10
2022-08-29T07:17:12.346Z,6.20
2022-08-29T07:18:13.330Z,4.30
2022-08-29T07:19:12.318Z,5.60
2022-08-29T07:20:12.393Z,4.50
2022-08-29T07:21:14.890Z,7.60
2022-08-29T07:22:12.309Z,15.00
2022-08-29T07:23:12.283Z,7.40
2022-08-29T07:24:12.286Z,8.20
2022-08-29T07:25:12.261Z,7.50
2022-08-29T07:26:12.266Z,5.40
2022-08-29T07:27:12.248Z,9.40
2022-08-29T07:28:12.222Z,5.50
2022-08-29T07:29:12.218Z,6.50
2022-08-29T07:30:12.245Z,6.00
2022-08-29T07:31:12.277Z,7.40
2022-08-29T07:32:12.196Z,8.40
2022-08-29T07:33:12.194Z,5.50
2022-08-29T07:34:12.164Z,5.90
2022-08-29T07:35:13.560Z,8.30
2022-08-29T07:36:12.125Z,5.20
2022-08-29T07:37:12.164Z,5.00
2022-08-29T07:38:12.208Z,5.00
2022-08-29T07:39:12.106Z,5.70
2022-08-29T07:40:12.162Z,6.40
2022-08-29T07:41:12.077Z,5.40
2022-08-29T07:42:12.085Z,7.90
2022-08-29T07:43:14.483Z,3.70
2022-08-29T07:44:13.086Z,6.40
2022-08-29T07:45:12.046Z,5.50
2022-08-29T07:46:12.095Z,4.70
2022-08-29T07:47:12.057Z,6.60
2022-08-29T07:48:12.039Z,10.10
2022-08-29T07:49:12.050Z,7.60
2022-08-29T07:50:12.002Z,3.70
2022-08-29T07:51:11.954Z,5.50
2022-08-29T07:52:11.998Z,4.40
2022-08-29T07:53:12.033Z,8.50
2022-08-29T07:54:12.058Z,4.60
2022-08-29T07:55:11.980Z,5.10
2022-08-29T07:56:11.910Z,3.90
2022-08-29T07:57:11.895Z,5.90
2022-08-29T07:58:11.918Z,4.60
2022-08-29T07:59:12.012Z,3.80
2022-08-29T08:00:12.070Z,7.70
2022-08-29T08:01:20.689Z,6.10
2022-08-29T08:02:12.970Z,7.00
2022-08-29T08:03:11.851Z,6.10
2022-08-29T08:04:11.879Z,4.90
2022-08-29T08:05:11.797Z,4.50
2022-08-29T08:06:11.902Z,6.10
2022-08-29T08:07:13.762Z,6.00
2022-08-29T08:08:15.024Z,7.30
2022-08-29T08:09:11.776Z,5.00
2022-08-29T08:10:11.851Z,4.40
2022-08-29T08:11:11.795Z,4.70
2022-08-29T08:12:11.732Z,4.00
2022-08-29T08:13:11.741Z,4.70
2022-08-29T08:14:11.718Z,4.60
2022-08-29T08:15:11.721Z,7.30
2022-08-29T08:16:11.674Z,4.20
2022-08-29T08:17:11.674Z,3.80
2022-08-29T08:18:11.730Z,6.00
2022-08-29T08:19:11.676Z,4.70
2022-08-29T08:20:11.746Z,4.90
2022-08-29T08:21:11.638Z,5.00
2022-08-29T08:22:11.607Z,4.80
2022-08-29T08:23:14.883Z,5.20
2022-08-29T08:24:14.945Z,6.70
2022-08-29T08:25:14.162Z,5.40
2022-08-29T08:26:11.574Z,7.10
2022-08-29T08:27:11.573Z,8.20
2022-08-29T08:28:11.669Z,5.80
2022-08-29T08:29:11.555Z,4.10
2022-08-29T08:30:11.581Z,5.90
2022-08-29T08:31:11.624Z,3.10
2022-08-29T08:32:11.505Z,5.00
2022-08-29T08:33:11.640Z,5.20
2022-08-29T08:34:11.479Z,5.60
2022-08-29T08:35:11.529Z,3.50
2022-08-29T08:36:11.472Z,4.10
2022-08-29T08:37:11.451Z,6.20
2022-08-29T08:38:11.577Z,3.80
2022-08-29T08:39:11.459Z,5.10
2022-08-29T08:40:11.517Z,5.50
2022-08-29T08:41:11.438Z,4.80
2022-08-29T08:42:11.396Z,5.80
2022-08-29T08:43:11.457Z,6.30
2022-08-29T08:44:11.387Z,5.40
2022-08-29T08:45:11.401Z,4.30
2022-08-29T08:46:11.388Z,3.50
2022-08-29T08:47:11.347Z,4.60
2022-08-29T08:48:11.337Z,3.50
2022-08-29T08:49:11.338Z,7.70
2022-08-29T08:50:11.365Z,6.50
2022-08-29T08:51:11.290Z,4.70
2022-08-29T08:52:11.274Z,4.80
2022-08-29T08:53:11.277Z,4.10
2022-08-29T08:54:11.261Z,5.60
2022-08-29T08:55:11.269Z,4.10
2022-08-29T08:56:11.236Z,5.00
2022-08-29T08:57:11.223Z,3.50
2022-08-29T08:58:11.297Z,6.50
2022-08-29T08:59:11.225Z,5.10
2022-08-29T09:00:11.187Z,4.00
2022-08-29T09:01:11.261Z,5.40
2022-08-29T09:02:11.247Z,4.60
2022-08-29T09:03:11.192Z,4.60
2022-08-29T09:04:11.185Z,3.50
2022-08-29T09:05:11.154Z,4.60
2022-08-29T09:06:11.132Z,3.50
2022-08-29T09:07:11.115Z,5.40
2022-08-29T09:08:11.101Z,6.00
2022-08-29T09:09:12.057Z,4.50
2022-08-29T09:10:11.077Z,7.10
2022-08-29T09:11:11.124Z,5.80
2022-08-29T09:12:11.062Z,3.70
2022-08-29T09:13:11.121Z,5.10
2022-08-29T09:14:11.032Z,4.60
2022-08-29T09:15:13.358Z,4.60
2022-08-29T09:16:11.055Z,4.00
2022-08-29T09:17:11.079Z,4.90
2022-08-29T09:18:13.525Z,4.30
2022-08-29T09:19:11.014Z,5.00
2022-08-29T09:20:10.974Z,5.30
2022-08-29T09:21:38.986Z,7.90
2022-08-29T09:22:11.957Z,4.80
2022-08-29T09:23:10.940Z,6.20
2022-08-29T09:24:10.969Z,5.10
2022-08-29T09:25:10.906Z,5.00
2022-08-29T09:26:10.915Z,5.00
2022-08-29T09:27:10.879Z,5.10
2022-08-29T09:28:10.899Z,4.60
2022-08-29T09:29:10.864Z,5.30
2022-08-29T09:30:10.892Z,4.80
2022-08-29T09:31:10.855Z,5.60
2022-08-29T09:32:10.891Z,5.20
2022-08-29T09:33:10.841Z,4.50
2022-08-29T09:34:12.125Z,7.30
2022-08-29T09:35:10.825Z,7.80
2022-08-29T09:36:10.784Z,4.90
2022-08-29T09:37:10.818Z,4.80
2022-08-29T09:38:10.778Z,5.60
2022-08-29T09:39:10.747Z,5.50
2022-08-29T09:40:10.996Z,5.20
2022-08-29T09:41:10.725Z,5.30
2022-08-29T09:42:10.717Z,4.70
2022-08-29T09:43:10.713Z,5.30
2022-08-29T09:44:10.717Z,4.60
2022-08-29T09:45:10.696Z,10.00
2022-08-29T09:46:10.755Z,5.60
2022-08-29T09:47:10.693Z,5.20
2022-08-29T09:48:10.683Z,7.60
2022-08-29T09:49:10.640Z,5.10
2022-08-29T09:50:10.633Z,3.30
2022-08-29T09:51:10.614Z,6.70
2022-08-29T09:52:10.624Z,6.10
2022-08-29T09:53:24.392Z,5.70
2022-08-29T09:54:11.609Z,5.30
2022-08-29T09:55:10.571Z,5.10
2022-08-29T09:56:10.592Z,3.70
2022-08-29T09:57:10.579Z,5.40
2022-08-29T09:58:10.550Z,2.70
2022-08-29T09:59:10.537Z,5.80
2022-08-29T10:00:10.533Z,4.80
2022-08-29T10:01:11.784Z,5.40
2022-08-29T10:02:10.572Z,8.00
2022-08-29T10:03:10.510Z,5.30
2022-08-29T10:04:10.475Z,5.20
2022-08-29T10:05:12.010Z,4.80
2022-08-29T10:06:10.472Z,4.30
2022-08-29T10:07:10.437Z,5.60
2022-08-29T10:08:10.452Z,5.70
2022-08-29T10:09:10.421Z,4.30
2022-08-29T10:10:10.425Z,3.90
2022-08-29T10:11:10.398Z,3.40
2022-08-29T10:12:10.368Z,4.90
2022-08-29T10:13:10.359Z,4.30
2022-08-29T10:14:12.645Z,3.50
2022-08-29T10:15:10.378Z,3.50
2022-08-29T10:16:10.411Z,4.00
2022-08-29T10:17:10.328Z,6.10
2022-08-29T10:18:10.338Z,3.40
2022-08-29T10:19:10.321Z,5.70
2022-08-29T10:20:10.300Z,6.00
2022-08-29T10:21:10.340Z,6.90
2022-08-29T10:22:10.300Z,6.00
2022-08-29T10:23:10.287Z,5.80
2022-08-29T10:24:10.264Z,7.80
2022-08-29T10:25:10.238Z,6.60
2022-08-29T10:26:10.273Z,3.70
2022-08-29T10:27:10.216Z,6.60
2022-08-29T10:28:10.196Z,6.40
2022-08-29T10:29:10.213Z,4.10
2022-08-29T10:30:10.218Z,5.20
2022-08-29T10:31:10.321Z,4.70
2022-08-29T10:32:10.161Z,4.70
2022-08-29T10:33:10.141Z,7.40
2022-08-29T10:34:10.147Z,3.80
2022-08-29T10:35:10.173Z,3.60
2022-08-29T10:36:10.108Z,6.40
2022-08-29T10:37:10.099Z,6.20
2022-08-29T10:38:10.105Z,5.00
2022-08-29T10:39:10.080Z,6.00
2022-08-29T10:40:10.217Z,5.40
2022-08-29T10:41:11.055Z,3.90
2022-08-29T10:42:14.215Z,4.00
2022-08-29T10:43:10.046Z,4.90
2022-08-29T10:44:10.076Z,6.00
2022-08-29T10:45:10.046Z,5.20
2022-08-29T10:46:10.074Z,5.30
2022-08-29T10:47:10.035Z,4.40
2022-08-29T10:48:10.002Z,3.30
2022-08-29T10:49:09.959Z,5.20
2022-08-29T10:50:16.918Z,4.40
2022-08-29T10:51:10.942Z,3.60
2022-08-29T10:52:09.939Z,5.10
2022-08-29T10:53:09.951Z,5.40
2022-08-29T10:54:09.914Z,5.90
2022-08-29T10:55:09.941Z,5.60
2022-08-29T10:56:09.896Z,4.50
2022-08-29T10:57:09.878Z,6.50
2022-08-29T10:58:12.555Z,5.30
2022-08-29T10:59:09.891Z,4.40
2022-08-29T11:00:09.841Z,5.10
2022-08-29T11:01:09.876Z,7.00
2022-08-29T11:02:09.821Z,3.40
2022-08-29T11:03:09.844Z,5.00
2022-08-29T11:04:09.925Z,4.10
2022-08-29T11:05:09.820Z,4.40
2022-08-29T11:06:09.765Z,4.50
2022-08-29T11:07:09.789Z,3.50
2022-08-29T11:08:11.729Z,4.70
2022-08-29T11:09:09.783Z,5.10
2022-08-29T11:10:09.752Z,3.70
2022-08-29T11:11:09.728Z,6.30
2022-08-29T11:12:09.719Z,3.30
2022-08-29T11:13:09.761Z,4.70
2022-08-29T11:14:09.708Z,4.10
2022-08-29T11:15:09.663Z,3.30
2022-08-29T11:16:09.732Z,3.60
2022-08-29T11:17:09.709Z,5.70
2022-08-29T11:18:09.639Z,4.30
2022-08-29T11:19:09.643Z,3.90
2022-08-29T11:20:09.649Z,5.80
2022-08-29T11:21:09.608Z,5.60
2022-08-29T11:22:09.637Z,4.90
2022-08-29T11:23:09.606Z,3.40
2022-08-29T11:24:09.572Z,5.00
2022-08-29T11:25:09.614Z,5.80
2022-08-29T11:26:09.563Z,5.40
2022-08-29T11:27:09.550Z,4.40
2022-08-29T11:28:09.545Z,6.90
2022-08-29T11:29:09.553Z,2.90
2022-08-29T11:30:09.531Z,2.60
2022-08-29T11:31:09.529Z,6.30
2022-08-29T11:32:09.488Z,4.20
2022-08-29T11:33:09.487Z,4.90
2022-08-29T11:34:09.485Z,4.70
2022-08-29T11:35:09.446Z,6.70
2022-08-29T11:36:09.432Z,3.50
2022-08-29T11:37:17.134Z,4.50
2022-08-29T11:38:09.575Z,3.10
2022-08-29T11:39:09.551Z,3.20
2022-08-29T11:40:09.453Z,4.00
2022-08-29T11:42:10.421Z,4.90
2022-08-29T11:43:12.416Z,3.90
2022-08-29T11:44:09.380Z,4.50
2022-08-29T11:45:09.328Z,4.00
2022-08-29T11:46:09.313Z,4.20
2022-08-29T11:47:09.382Z,3.90
2022-08-29T11:48:09.292Z,5.40
2022-08-29T11:49:09.290Z,5.50
2022-08-29T11:50:09.270Z,3.00
2022-08-29T11:51:09.283Z,3.50
2022-08-29T11:52:09.312Z,4.20
2022-08-29T11:53:09.303Z,4.90
2022-08-29T11:54:09.238Z,3.70
2022-08-29T11:55:09.230Z,4.80
2022-08-29T11:56:09.225Z,4.20
2022-08-29T11:57:09.200Z,2.80
2022-08-29T11:58:11.758Z,3.60
2022-08-29T11:59:09.372Z,3.60
2022-08-29T12:00:09.242Z,5.70
2022-08-29T12:01:12.261Z,3.90
2022-08-29T12:02:11.874Z,5.00
2022-08-29T12:03:15.057Z,6.00
2022-08-29T12:04:10.204Z,5.10
2022-08-29T12:05:09.132Z,4.80
2022-08-29T12:06:09.119Z,4.80
2022-08-29T12:07:09.112Z,4.70
2022-08-29T12:08:26.577Z,4.10
2022-08-29T12:09:13.407Z,4.50
2022-08-29T12:10:09.426Z,5.20
2022-08-29T12:11:09.303Z,5.10
2022-08-29T12:12:09.402Z,6.30
2022-08-29T12:13:09.695Z,4.30
2022-08-29T12:14:19.030Z,3.80
2022-08-29T12:15:09.252Z,4.50
2022-08-29T12:16:09.228Z,4.50
2022-08-29T12:17:09.812Z,4.40
2022-08-29T12:18:08.983Z,6.50
2022-08-29T12:19:08.957Z,5.60
2022-08-29T12:20:08.976Z,4.20
2022-08-29T12:21:09.063Z,4.10
2022-08-29T12:22:22.346Z,3.80
2022-08-29T12:23:10.024Z,5.90
2022-08-29T12:24:08.892Z,5.60
2022-08-29T12:25:11.276Z,4.60
2022-08-29T12:26:22.088Z,5.10
2022-08-29T12:27:12.869Z,3.00
2022-08-29T12:28:09.843Z,3.90
2022-08-29T12:29:16.709Z,3.30
2022-08-29T12:30:08.976Z,3.50
2022-08-29T12:31:08.995Z,10.40
2022-08-29T12:32:22.574Z,10.90
2022-08-29T12:33:09.935Z,3.70
2022-08-29T12:34:08.824Z,4.50
2022-08-29T12:35:08.775Z,4.30
2022-08-29T12:36:08.825Z,3.10
2022-08-29T12:37:08.775Z,5.00
2022-08-29T12:38:08.729Z,4.30
2022-08-29T12:39:08.780Z,8.90
2022-08-29T12:40:08.780Z,4.90
2022-08-29T12:41:08.733Z,5.00
2022-08-29T12:42:08.701Z,3.90
2022-08-29T12:43:08.846Z,3.70
2022-08-29T12:44:08.714Z,6.00
2022-08-29T12:45:08.672Z,4.30
2022-08-29T12:46:08.669Z,8.60
2022-08-29T12:47:08.740Z,4.90
2022-08-29T12:48:08.673Z,4.90
2022-08-29T12:49:08.664Z,3.40
2022-08-29T12:50:08.604Z,3.50
2022-08-29T12:51:08.589Z,4.30
2022-08-29T12:52:08.582Z,3.50
2022-08-29T12:53:08.594Z,3.40
2022-08-29T12:54:08.592Z,4.00
2022-08-29T12:55:08.541Z,4.40
2022-08-29T12:56:08.528Z,7.60
2022-08-29T12:57:08.538Z,6.90
2022-08-29T12:58:08.621Z,4.10
2022-08-29T12:59:08.522Z,8.10
2022-08-29T13:00:08.483Z,5.20
2022-08-29T13:01:08.586Z,5.00
2022-08-29T13:02:08.464Z,7.10
2022-08-29T13:03:09.303Z,5.20
2022-08-29T13:04:09.482Z,7.40
2022-08-29T13:05:08.452Z,6.80
2022-08-29T13:06:08.424Z,9.60
2022-08-29T13:07:08.531Z,5.00
2022-08-29T13:08:11.110Z,7.00
2022-08-29T13:09:08.398Z,9.90
2022-08-29T13:10:08.440Z,5.00
2022-08-29T13:11:08.374Z,2.70
2022-08-29T13:12:08.380Z,3.50
2022-08-29T13:13:08.345Z,3.90
2022-08-29T13:14:08.336Z,3.60
2022-08-29T13:15:08.344Z,5.80
2022-08-29T13:16:08.406Z,3.50
2022-08-29T13:17:08.314Z,5.40
2022-08-29T13:18:08.349Z,4.90